Brown And Brown Inc (BRO) Latest Bloomsberg Price


Mffais Ranking #2268 Overall / #3 Industry
Industry: Insurance Brokers

Number of Companies: 182 (Ranking #922 Overall/#4 Industry)
Inflow: $ 76,189 (K) (Ranking #1108 Overall/#4 Industry)
Outflow: $ -121,548 (K)
Mffais Flow: $ -45,358 (K) (Ranking #2268 Overall/#3 Industry)


Receive a FREE weekly executive review of stocks moving into the top 10, taking the top industy spot or moving up within their industry. Sent directly to your Inbox every Saturday. Sign up today and get last week's review immediately sent to you.

We value and respect your privacy. Please read our Terms and Conditions which states our firm commitment to your privacy. Your email address will not be shared with a third party, nor will it be sold or used for purposes other than subscription for the weekly review.

Owner CPOR Shares Action Qty Chg Invested (K) Total Current Value (K)
Lord Abbett Co Llc 2016-09-30 244,500 New Holding 244,500 $ 9,073 $ 9,073
Prospector Partners Llc 2016-09-30 348,000 Added More 198,800 $ 7,377 $ 12,914
Clarkston Capital Partners Llc 2016-09-30 2,339,590 Added More 186,460 $ 6,919 $ 86,822
Philadelphia Financial Management Of San Francisco Llc 2016-09-30 171,041 New Holding 171,041 $ 6,347 $ 6,347
Robeco Institutional Asset Management B V 2016-09-30 120,166 New Holding 120,166 $ 4,459 $ 4,459
Highbridge Capital Management Llc 2016-09-30 109,926 New Holding 109,926 $ 4,079 $ 4,079
Thompson Siegel Walmsley Llc 2016-09-30 927,161 Added More 95,677 $ 3,550 $ 34,406
Clinton Group Inc 2016-09-30 77,120 New Holding 77,120 $ 2,861 $ 2,861
State Of Tennessee Treasury Department 2016-09-30 70,000 New Holding 70,000 $ 2,597 $ 2,597
Raymond James Associates 2016-09-30 416,093 Added More 67,163 $ 2,492 $ 15,441
Hermes Investment Management Ltd 2016-09-30 941,224 Added More 63,028 $ 2,338 $ 34,928
Proshare Advisors Llc 2016-09-30 140,926 Added More 54,564 $ 2,024 $ 5,229
Dynamic Capital Management Ltd 2016-09-30 50,443 New Holding 50,443 $ 1,871 $ 1,871
Guggenheim Capital Llc 2016-09-30 65,803 Added More 42,499 $ 1,577 $ 2,441
Capstone Investment Advisors Llc 2016-09-30 40,507 New Holding 40,507 $ 1,503 $ 1,503
Cadence Capital Management Llc 2016-09-30 36,872 New Holding 36,872 $ 1,368 $ 1,368
Vaughan Nelson Investment Management L P 2016-09-30 2,414,725 Added More 35,300 $ 1,309 $ 89,610
Kames Capital Plc 2016-09-30 76,815 Added More 35,233 $ 1,307 $ 2,850
Engineers Gate Manager Lp 2016-09-30 31,673 New Holding 31,673 $ 1,175 $ 1,175
Td Asset Management Inc 2016-09-30 86,853 Added More 21,400 $ 794 $ 3,223
Babson Capital Management Llc 2016-09-30 15,300 New Holding 15,300 $ 567 $ 567
Bluemountain Capital Management Llc 2016-09-30 15,106 New Holding 15,106 $ 560 $ 560
Bayesian Capital Management Lp 2016-09-30 14,771 New Holding 14,771 $ 548 $ 548
Wcm Investment Management Ca 2016-09-30 14,226 New Holding 14,226 $ 527 $ 527
Eaton Vance Management 2016-09-30 13,752 New Holding 13,752 $ 510 $ 510
Blackrock Inc 2016-09-30 166,199 Added More 13,504 $ 501 $ 6,167
Dimensional Fund Advisors Lp 2016-09-30 1,240,579 Added More 12,750 $ 473 $ 46,037
Capital Fund Management S A 2016-09-30 11,400 New Holding 11,400 $ 423 $ 423
Ahl Partners Llp 2016-09-30 25,947 Added More 11,244 $ 417 $ 962
Patten Patten Inc Tn 2016-09-30 11,000 New Holding 11,000 $ 408 $ 408
Northern Trust Corp 2016-09-30 984,957 Added More 10,457 $ 388 $ 36,551
Polar Capital Llp 2016-09-30 385,000 Added More 10,000 $ 371 $ 14,287
Argentus Capital Management Llc 2016-09-30 13,370 Added More 9,733 $ 361 $ 496
Kcg Holdings Inc 2016-09-30 17,002 Added More 9,731 $ 361 $ 630
Nationwide Fund Advisors 2016-09-30 351,425 Added More 9,057 $ 336 $ 13,041
Dynamic Technology Lab Private Ltd 2016-09-30 9,002 New Holding 9,002 $ 334 $ 334
Phocas Financial Corp 2016-09-30 136,571 Added More 8,429 $ 312 $ 5,068
Tudor Investment Corp Et Al 2016-09-30 7,731 New Holding 7,731 $ 286 $ 286
Burgundy Asset Management Ltd 2016-09-30 1,468,075 Added More 7,646 $ 283 $ 54,480
Fox Run Management L L C 2016-09-30 7,100 New Holding 7,100 $ 263 $ 263
Quadrature Capital Ltd 2016-09-30 7,000 New Holding 7,000 $ 259 $ 259
Nisa Investment Advisors Llc 2016-09-30 61,900 Added More 6,300 $ 233 $ 2,297
Verition Fund Management Llc 2016-09-30 5,960 New Holding 5,960 $ 221 $ 221
Rhumbline Advisers 2016-09-30 202,190 Added More 5,937 $ 220 $ 7,503
Teachers Advisors Inc 2016-09-30 119,280 Added More 5,916 $ 219 $ 4,426
Tower Research Capital Llc Trc 2016-09-30 8,165 Added More 5,472 $ 203 $ 303
Blackrock Investment Management Llc 2016-09-30 384,453 Added More 4,557 $ 169 $ 14,267
Crawford Investment Counsel Inc 2016-09-30 48,025 Added More 4,470 $ 165 $ 1,782
Centaur Capital Partners L P 2016-09-30 50,000 Added More 4,000 $ 148 $ 1,855
Tlp Group Llc 2016-09-30 3,007 New Holding 3,007 $ 111 $ 111
Aviva Plc 2016-09-30 75,122 Added More 2,876 $ 106 $ 2,787
Bb T Corp 2016-09-30 96,856 Added More 2,596 $ 96 $ 3,594
Kbc Group Nv 2016-09-30 2,120 New Holding 2,120 $ 78 $ 78
Leavell Investment Management Inc 2016-09-30 35,200 Added More 2,100 $ 77 $ 1,306
California State Teachers Retirement System 2016-09-30 255,028 Added More 2,100 $ 77 $ 9,464
Parametric Portfolio Associates Llc 2016-09-30 79,523 Added More 1,962 $ 72 $ 2,951
World Asset Management Inc 2016-09-30 7,507 Added More 1,852 $ 68 $ 278
Foresters Investment Management Company Inc 2016-09-30 163,000 Added More 1,500 $ 55 $ 6,048
Fuller Thaler Asset Management Inc 2016-09-30 1,300 New Holding 1,300 $ 48 $ 48
Pacer Advisors Inc 2016-09-30 13,489 Added More 1,132 $ 42 $ 500
Us Bancorp De 2016-09-30 18,176 Added More 1,010 $ 37 $ 674
Oregon Public Employees Retirement Fund 2016-09-30 40,180 Added More 901 $ 33 $ 1,491
Cubist Systematic Strategies Llc 2016-09-30 7,264 Added More 648 $ 24 $ 269
Capstone Asset Management Co 2016-09-30 11,978 Added More 520 $ 19 $ 444
Zurcher Kantonalbank Zurich Cantonalbank 2016-09-30 3,917 Added More 464 $ 17 $ 145
Mosaic Family Wealth Llc 2016-09-30 3,858 Added More 379 $ 14 $ 143
Ls Investment Advisors Llc 2016-09-30 7,366 Added More 373 $ 13 $ 273
Benjamin F Edwards Company Inc 2016-09-30 15,054 Added More 346 $ 12 $ 558
Integrated Investment Consultants Llc 2016-09-30 2,925 Added More 300 $ 11 $ 108
Cookson Peirce Co Inc 2016-09-30 36,095 Added More 285 $ 10 $ 1,339
Aperio Group Llc 2016-09-30 12,344 Added More 265 $ 9 $ 458
Penserra Capital Management Llc 2016-09-30 461 Added More 184 $ 6 $ 17
Pnc Financial Services Group Inc 2016-09-30 30,298 Added More 158 $ 5 $ 1,124
Orrstown Financial Services Inc 2016-09-30 220 Added More 150 $ 5 $ 8
Dean Investment Associates Llc 2016-09-30 13,239 Added More 121 $ 4 $ 491
Ifp Advisors Inc 2016-09-30 2,573 Added More 118 $ 4 $ 95
Solaris Asset Management Llc 2016-09-30 116 New Holding 116 $ 4 $ 4
Creative Planning 2016-09-30 577 Added More 77 $ 2 $ 21
Bronfman E L Rothschild L P 2016-09-30 3,498 Added More 71 $ 2 $ 129
Mason Street Advisors Llc 2016-09-30 53,045 Added More 46 $ 1 $ 1,968
Arrowpoint Asset Management Llc 2016-09-30 40 New Holding 40 $ 1 $ 1
Proficio Capital Partners Llc 2016-09-30 138 Added More 19 $ 0 $ 5
Weaver C Barksdale Associates Inc 2016-09-30 222 Added More 11 $ 0 $ 8
Wfg Advisors Lp 2016-09-30 553 Added More 1 $ 0 $ 20
Cls Investments Llc 2016-09-30 1 New Holding 1 $ 0 $ 0
Gemmer Asset Management Llc 2016-09-30 675 No Change 0 $ 0 $ 25
Panagora Asset Management Inc 2016-09-30 7,644 No Change 0 $ 0 $ 283
I G Investment Management Ltd 2016-09-30 19,400 No Change 0 $ 0 $ 719
Shelton Capital Management 2016-09-30 11,293 No Change 0 $ 0 $ 419
First Quadrant L P Ca 2016-09-30 25,598 No Change 0 $ 0 $ 949
Smithfield Trust Co 2016-09-30 1,780 No Change 0 $ 0 $ 66
Cibc Asset Management Inc 2016-09-30 6,677 No Change 0 $ 0 $ 247
Vaughan David Investments Inc Il 2016-09-30 100,000 No Change 0 $ 0 $ 3,711
Oakbrook Investments Llc 2016-09-30 5,800 No Change 0 $ 0 $ 215
Endeavour Capital Advisors Inc 2016-09-30 152,183 No Change 0 $ 0 $ 5,647
Teachers Retirement System Of The State Of Kentucky 2016-09-30 27,100 No Change 0 $ 0 $ 1,005
Calamos Advisors Llc 2016-09-30 6,805 No Change 0 $ 0 $ 252
Chilton Investment Co Llc 2016-09-30 6,252 No Change 0 $ 0 $ 232
Findlay Park Partners Llp 2016-09-30 4,171,295 No Change 0 $ 0 $ 154,796
Msi Financial Services Inc 2016-09-30 216 No Change 0 $ 0 $ 8
Teton Advisors Inc 2016-09-30 16,284 No Change 0 $ 0 $ 604
Dekabank Deutsche Girozentrale 2016-09-30 29,233 No Change 0 $ 0 $ 1,084
Qs Investors Llc 2016-09-30 8 No Change 0 $ 0 $ 0
Rocky Mountain Advisers Llc 2016-09-30 68 No Change 0 $ 0 $ 2
Nuveen Asset Management Llc 2016-09-30 48,119 No Change 0 $ 0 $ 1,785
New York State Teachers Retirement System 2016-09-30 192,068 No Change 0 $ 0 $ 7,127
South Dakota Investment Council 2016-09-30 7,000 No Change 0 $ 0 $ 259
Rowland Co Investment Counsel Adv 2016-09-30 4,140 No Change 0 $ 0 $ 153
Utah Retirement Systems 2016-09-30 21,192 No Change 0 $ 0 $ 786
Parkwood Llc 2016-09-30 13,968 No Change 0 $ 0 $ 518
Compagnie Lombard Odier Scma 2016-09-30 131,000 No Change 0 $ 0 $ 4,861
Zions Bancorporation 2016-09-30 38 No Change 0 $ 0 $ 1
Quadrant Capital Group Llc 2016-09-30 63 No Change 0 $ 0 $ 2
Cambridge Investment Research Advisors Inc 2016-09-30 8,835 Sold Some -27 $ -1 $ 327
Carroll Financial Associates Inc 2016-09-30 101 Sold Some -46 $ -1 $ 3
Howe Rusling Inc 2016-09-30 110 Sold Some -65 $ -2 $ 4
M T Bank Corp 2016-09-30 8,941 Sold Some -71 $ -2 $ 331
Advantus Capital Management Inc 2016-09-30 13,953 Sold Some -122 $ -4 $ 517
Ftb Advisors Inc 2016-09-30 0 Sold All -140 $ -5 $ 0
Advisors Asset Management Inc 2016-09-30 2,800 Sold Some -200 $ -7 $ 103
Massmutual Trust Co Fsb Adv 2016-06-30 0 Sold All -220 $ -8 $ 0
Comerica Bank 2016-09-30 80,563 Sold Some -281 $ -10 $ 2,989
Northwestern Mutual Investment Management Company Llc 2016-09-30 19,742 Sold Some -322 $ -11 $ 732
Cutler Group Lp 2016-09-30 246 Sold Some -395 $ -14 $ 9
Great Lakes Advisors Llc 2016-09-30 38,062 Sold Some -400 $ -14 $ 1,412
Tompkins Financial Corp 2016-09-30 0 Sold All -405 $ -15 $ 0
Ibm Retirement Fund 2016-09-30 11,313 Sold Some -443 $ -16 $ 419
Mutual Of America Capital Management Llc 2016-09-30 85,242 Sold Some -553 $ -20 $ 3,163
First Merchants Corp 2016-09-30 73,565 Sold Some -652 $ -24 $ 2,729
Ladenburg Thalmann Financial Services Inc 2016-09-30 621 Sold Some -670 $ -24 $ 23
Arizona State Retirement System 2016-09-30 48,691 Sold Some -700 $ -25 $ 1,806
Blackrock Japan Co Ltd 2016-09-30 0 Sold All -789 $ -29 $ 0
Horizon Kinetics Llc 2016-09-30 10,898 Sold Some -997 $ -36 $ 404
Ramsey Quantitative Systems 2016-09-30 19,072 Sold Some -1,088 $ -40 $ 707
Thrivent Financial For Lutherans 2016-09-30 191,610 Sold Some -1,420 $ -52 $ 7,110
Sei Investments Co 2016-09-30 21,151 Sold Some -1,454 $ -53 $ 784
Hsbc Holdings Plc 2016-09-30 105,220 Sold Some -1,488 $ -55 $ 3,904
Profund Advisors Llc 2016-09-30 15,552 Sold Some -1,503 $ -55 $ 577
Texas Permanent School Fund 2016-09-30 87,336 Sold Some -1,527 $ -56 $ 3,241
Emerald Acquisition Ltd 2016-09-30 29,530 Sold Some -1,540 $ -57 $ 1,095
Arcadia Investment Management Corp Mi 2016-09-30 0 Sold All -1,625 $ -60 $ 0
Nomura Asset Management Co Ltd 2016-09-30 0 Sold All -1,990 $ -73 $ 0
Checchi Capital Advisers Llc 2016-09-30 0 Sold All -2,068 $ -76 $ 0
Btim Corp 2016-09-30 187,800 Sold Some -2,172 $ -80 $ 6,969
Retirement Systems Of Alabama 2016-09-30 147,736 Sold Some -2,181 $ -80 $ 5,482
Ruane Cunniff Goldfarb Inc 2016-09-30 9,322 Sold Some -2,400 $ -89 $ 345
Park National Corp Oh 2016-09-30 95,954 Sold Some -2,808 $ -104 $ 3,560
Van Berkom Associates Inc 2016-09-30 1,304,767 Sold Some -2,840 $ -105 $ 48,419
Swiss National Bank 2016-09-30 192,600 Sold Some -3,000 $ -111 $ 7,147
Pacad Investment Ltd 2016-09-30 0 Sold All -3,200 $ -118 $ 0
American International Group Inc 2016-09-30 221,560 Sold Some -3,544 $ -131 $ 8,222
Teacher Retirement System Of Texas 2016-09-30 12,685 Sold Some -3,851 $ -142 $ 470
Liberty Mutual Group Asset Management Inc 2016-09-30 45,792 Sold Some -4,153 $ -154 $ 1,699
Rafferty Asset Management Llc 2016-09-30 7,478 Sold Some -5,052 $ -187 $ 277
Sevenbridge Financial Group Llc 2016-09-30 5,313 Sold Some -5,414 $ -200 $ 197
Hancock Holding Co 2016-09-30 70,504 Sold Some -6,700 $ -248 $ 2,616
Ngam Advisors L P 2016-09-30 239,735 Sold Some -6,744 $ -250 $ 8,896
Princeton Alpha Management Lp 2016-09-30 0 Sold All -6,750 $ -250 $ 0
State Treasurer State Of Michigan 2016-09-30 150,600 Sold Some -7,600 $ -282 $ 5,588
Icon Advisers Inc Co 2016-09-30 0 Sold All -7,700 $ -285 $ 0
Cacti Asset Management Llc 2016-09-30 10,850 Sold Some -8,851 $ -328 $ 402
Advisor Group Inc 2016-09-30 11,212 Sold Some -11,476 $ -425 $ 416
Keybank National Association Oh 2016-09-30 43,621 Sold Some -14,948 $ -554 $ 1,618
Sg Americas Securities Llc 2016-09-30 31,290 Sold Some -15,307 $ -568 $ 1,161
Envestnet Asset Management Inc 2016-09-30 43,030 Sold Some -17,864 $ -662 $ 1,596
Stifel Financial Corp 2016-09-30 90,240 Sold Some -18,442 $ -684 $ 3,348
Legal General Group Plc 2016-09-30 458,551 Sold Some -19,244 $ -714 $ 17,016
New York State Common Retirement Fund 2016-09-30 531,789 Sold Some -20,061 $ -744 $ 19,734
Martingale Asset Management L P 2016-09-30 420,299 Sold Some -23,700 $ -879 $ 15,597
Zurich Insurance Group Ltd Fi 2016-09-30 0 Sold All -29,161 $ -1,082 $ 0
Buckhead Capital Management Llc 2016-09-30 57,875 Sold Some -29,240 $ -1,085 $ 2,147
Bogle Investment Management L P De 2016-09-30 0 Sold All -30,200 $ -1,120 $ 0
Fenimore Asset Management Inc 2016-09-30 1,766,762 Sold Some -34,800 $ -1,291 $ 65,564
Mackenzie Financial Corp 2016-09-30 1,034,319 Sold Some -51,681 $ -1,917 $ 38,383
Weitz Investment Management Inc 2016-09-30 80,000 Sold Some -70,000 $ -2,597 $ 2,968
Confluence Investment Management Llc 2016-09-30 632,010 Sold Some -145,324 $ -5,392 $ 23,453
Leuthold Group Llc 2016-09-30 0 Sold All -152,123 $ -5,645 $ 0
Hotchkis Wiley Capital Management Llc 2016-09-30 1,977,660 Sold Some -311,600 $ -11,563 $ 73,390
Altrinsic Global Advisors Llc 2016-09-30 749,903 Sold Some -311,915 $ -11,575 $ 27,828
Diamond Hill Capital Management Inc 2016-09-30 3,169,080 Sold Some -329,625 $ -12,232 $ 117,604
Madison Investment Holdings Inc 2016-09-30 978,692 Sold Some -532,206 $ -19,750 $ 36,319
Royal London Asset Management Ltd 2016-06-30 40,792 Sold Some -988,674 $ -37,045 $ 1,528